Mooney, MT

12:43 AM MDT on September 02, 2014 (GMT -0600)
Mooney | Change Station
CLOSE
Current Station
Airport
Location: Butte,
Elevation: 5545 ft
Nearby Weather Stations

Elev 5545 ft 45.95 °N, 112.50 °W | Updated 50 minutes ago

Clear
Clear
44 °F
Feels Like 42 °F
N
5
Wind Variable Wind from ESE

Today
High -- | Low -- °F
--% Chance of Precip.
Yesterday
High -- | Low -- °F
Precip. -- in
6:52 AM 8:06 PM
Waxing Crescent, 48% visible
Pressure 30.01 in
Visibility 10.0 miles
Clouds Clear
Windchill 42 °F
Dew Point 37 °F
Humidity 76%
Rainfall 0.00 in
Snow Depth Not available.
UV 0 out of 12
Pollen 6.70 out of 12
Air Quality Not available.
Flu Activity Not available.
METAR KBTM 020553Z AUTO 11004KT 10SM CLR 07/03 A3007 RMK AO2 SLP161 T00670028 10189 20067 51008 $

More Conditions Fewer Conditions

Pressure 30.01 in
Visibility 10.0 miles
Clouds Clear
Windchill 42 °F
Dew Point 37 °F
Humidity 76%
Rainfall 0.00 in
Snow Depth Not available.
UV 0 out of 12
Pollen 6.70 out of 12
Air Quality Not available.
Flu Activity Not available.
METAR KBTM 020553Z AUTO 11004KT 10SM CLR 07/03 A3007 RMK AO2 SLP161 T00670028 10189 20067 51008 $

More Conditions Fewer Conditions

10-Day Weather Forecast

Almanac

Astronomy

Sep. 02, 2014 Rise Set
Actual Time 6:52 AM MDT 8:06 PM MDT
Civil Twilight 6:21 AM MDT 8:36 PM MDT
Nautical Twilight 5:44 AM MDT 9:13 PM MDT
Astronomical Twilight 5:04 AM MDT 9:53 PM MDT
Moon 3:02 PM MDT No Moon Set
Length of Visible Light 14h 15m
Length of Day
13h 14m
Tomorrow will be 3m 8s shorter.
Waxing Crescent, 48% of the Moon is Illuminated
Today
Waxing Crescent
Sep 2
First Quarter
Sep 8
Full
Sep 15
Last Quarter
Sep 24
New

Today's Extremes

State Highs State Lows

Community

WunderPhotos

Upload Photos

1,749,589 photos uploaded!

WunderBlogs® & News

Nearby

Snow Depth

Station Depth Elevation
Basin Creek 0 in 7180 ft
Brackett Creek 1 in 7320 ft
Rocker Peak 1 in 8000 ft
Barker Lakes 0 in 8250 ft
Albro Lake 0 in 8300 ft

Earthquake Activity

City Distance Mag. Time & Date
No recent earthquake activity has been reported nearby.
Minimum magnitude displayed is 2.5.

Coastal Water Temperatures

Place Temperature
No Stations Reporting

Nearby Weather Stations